sensor_id;sensor_type;location;lat;lon;timestamp;P1;durP1;ratioP1;P2;durP2;ratioP2
19998;SDS011;10160;50.926;4.374;2023-06-14T00:01:35;13.60;;;6.28;;
19998;SDS011;10160;50.926;4.374;2023-06-14T00:04:03;9.18;;;5.53;;
19998;SDS011;10160;50.926;4.374;2023-06-14T00:06:30;10.13;;;6.07;;
19998;SDS011;10160;50.926;4.374;2023-06-14T00:08:58;12.73;;;6.25;;
19998;SDS011;10160;50.926;4.374;2023-06-14T00:11:24;12.68;;;5.20;;
19998;SDS011;10160;50.926;4.374;2023-06-14T00:13:51;11.18;;;5.57;;
19998;SDS011;10160;50.926;4.374;2023-06-14T00:16:17;8.10;;;5.20;;
19998;SDS011;10160;50.926;4.374;2023-06-14T00:18:44;10.82;;;5.93;;
19998;SDS011;10160;50.926;4.374;2023-06-14T00:21:10;8.77;;;5.82;;
19998;SDS011;10160;50.926;4.374;2023-06-14T00:23:37;14.38;;;5.43;;
19998;SDS011;10160;50.926;4.374;2023-06-14T00:26:03;10.10;;;5.60;;
19998;SDS011;10160;50.926;4.374;2023-06-14T00:28:28;11.68;;;6.20;;
19998;SDS011;10160;50.926;4.374;2023-06-14T00:30:54;10.52;;;5.82;;
19998;SDS011;10160;50.926;4.374;2023-06-14T00:33:20;14.10;;;6.00;;
19998;SDS011;10160;50.926;4.374;2023-06-14T00:35:46;9.52;;;5.95;;
19998;SDS011;10160;50.926;4.374;2023-06-14T00:38:12;10.48;;;6.30;;
19998;SDS011;10160;50.926;4.374;2023-06-14T00:40:38;9.60;;;5.93;;
19998;SDS011;10160;50.926;4.374;2023-06-14T00:43:03;9.02;;;5.68;;
19998;SDS011;10160;50.926;4.374;2023-06-14T00:45:29;12.98;;;5.80;;
19998;SDS011;10160;50.926;4.374;2023-06-14T00:47:56;11.55;;;5.82;;
19998;SDS011;10160;50.926;4.374;2023-06-14T00:50:23;10.20;;;5.75;;
19998;SDS011;10160;50.926;4.374;2023-06-14T00:52:49;12.57;;;6.28;;
19998;SDS011;10160;50.926;4.374;2023-06-14T00:55:15;11.25;;;5.55;;
19998;SDS011;10160;50.926;4.374;2023-06-14T00:57:41;10.57;;;5.82;;
19998;SDS011;10160;50.926;4.374;2023-06-14T01:00:07;12.25;;;5.88;;
19998;SDS011;10160;50.926;4.374;2023-06-14T01:02:34;10.80;;;5.90;;
19998;SDS011;10160;50.926;4.374;2023-06-14T01:05:02;10.18;;;6.28;;
19998;SDS011;10160;50.926;4.374;2023-06-14T01:07:33;11.70;;;6.13;;
19998;SDS011;10160;50.926;4.374;2023-06-14T01:15:30;13.30;;;5.80;;
19998;SDS011;10160;50.926;4.374;2023-06-14T01:17:56;13.38;;;5.88;;
19998;SDS011;10160;50.926;4.374;2023-06-14T01:20:28;9.77;;;6.18;;
19998;SDS011;10160;50.926;4.374;2023-06-14T01:22:54;14.10;;;6.03;;
19998;SDS011;10160;50.926;4.374;2023-06-14T01:25:20;9.27;;;6.15;;
19998;SDS011;10160;50.926;4.374;2023-06-14T01:27:51;10.75;;;6.00;;
19998;SDS011;10160;50.926;4.374;2023-06-14T01:30:20;8.40;;;5.65;;
19998;SDS011;10160;50.926;4.374;2023-06-14T01:32:46;13.07;;;6.00;;
19998;SDS011;10160;50.926;4.374;2023-06-14T01:35:13;12.80;;;6.38;;
19998;SDS011;10160;50.926;4.374;2023-06-14T01:37:39;11.93;;;5.95;;
19998;SDS011;10160;50.926;4.374;2023-06-14T01:40:07;12.48;;;6.10;;
19998;SDS011;10160;50.926;4.374;2023-06-14T01:42:35;8.98;;;5.75;;
19998;SDS011;10160;50.926;4.374;2023-06-14T01:45:03;14.48;;;6.50;;
19998;SDS011;10160;50.926;4.374;2023-06-14T01:47:31;13.52;;;6.20;;
19998;SDS011;10160;50.926;4.374;2023-06-14T01:49:57;9.88;;;5.90;;
19998;SDS011;10160;50.926;4.374;2023-06-14T01:52:23;9.82;;;5.78;;
19998;SDS011;10160;50.926;4.374;2023-06-14T01:54:49;13.52;;;5.80;;
19998;SDS011;10160;50.926;4.374;2023-06-14T01:57:15;15.40;;;6.20;;
19998;SDS011;10160;50.926;4.374;2023-06-14T01:59:41;13.07;;;6.43;;
19998;SDS011;10160;50.926;4.374;2023-06-14T02:02:07;9.35;;;6.30;;
19998;SDS011;10160;50.926;4.374;2023-06-14T02:04:33;12.02;;;6.05;;
19998;SDS011;10160;50.926;4.374;2023-06-14T02:06:59;11.48;;;6.35;;
19998;SDS011;10160;50.926;4.374;2023-06-14T02:09:25;11.93;;;6.45;;
19998;SDS011;10160;50.926;4.374;2023-06-14T02:11:51;11.63;;;6.32;;
19998;SDS011;10160;50.926;4.374;2023-06-14T02:14:16;9.40;;;6.20;;
19998;SDS011;10160;50.926;4.374;2023-06-14T02:16:43;11.70;;;6.65;;
19998;SDS011;10160;50.926;4.374;2023-06-14T02:19:14;10.73;;;6.57;;
19998;SDS011;10160;50.926;4.374;2023-06-14T02:21:41;12.35;;;6.75;;
19998;SDS011;10160;50.926;4.374;2023-06-14T02:24:07;11.98;;;6.88;;
19998;SDS011;10160;50.926;4.374;2023-06-14T02:26:33;11.20;;;6.75;;
19998;SDS011;10160;50.926;4.374;2023-06-14T02:28:59;16.73;;;7.20;;
19998;SDS011;10160;50.926;4.374;2023-06-14T02:31:25;11.63;;;6.65;;
19998;SDS011;10160;50.926;4.374;2023-06-14T02:33:50;13.07;;;6.53;;
19998;SDS011;10160;50.926;4.374;2023-06-14T02:36:16;14.43;;;6.30;;
19998;SDS011;10160;50.926;4.374;2023-06-14T02:38:42;12.80;;;6.25;;
19998;SDS011;10160;50.926;4.374;2023-06-14T02:41:07;9.90;;;6.47;;
19998;SDS011;10160;50.926;4.374;2023-06-14T02:43:33;14.18;;;6.93;;
19998;SDS011;10160;50.926;4.374;2023-06-14T02:45:59;13.07;;;7.07;;
19998;SDS011;10160;50.926;4.374;2023-06-14T02:48:24;11.48;;;6.65;;
19998;SDS011;10160;50.926;4.374;2023-06-14T02:50:50;13.50;;;7.72;;
19998;SDS011;10160;50.926;4.374;2023-06-14T02:53:16;10.95;;;7.13;;
19998;SDS011;10160;50.926;4.374;2023-06-14T02:55:42;13.80;;;6.88;;
19998;SDS011;10160;50.926;4.374;2023-06-14T02:58:08;14.80;;;7.22;;
19998;SDS011;10160;50.926;4.374;2023-06-14T03:00:33;10.90;;;6.85;;
19998;SDS011;10160;50.926;4.374;2023-06-14T03:03:01;12.65;;;7.40;;
19998;SDS011;10160;50.926;4.374;2023-06-14T03:05:27;13.77;;;7.07;;
19998;SDS011;10160;50.926;4.374;2023-06-14T03:07:53;9.90;;;6.55;;
19998;SDS011;10160;50.926;4.374;2023-06-14T03:10:19;13.07;;;7.13;;
19998;SDS011;10160;50.926;4.374;2023-06-14T03:12:47;13.60;;;8.00;;
19998;SDS011;10160;50.926;4.374;2023-06-14T03:15:12;12.45;;;7.55;;
19998;SDS011;10160;50.926;4.374;2023-06-14T03:17:38;12.20;;;7.00;;
19998;SDS011;10160;50.926;4.374;2023-06-14T03:20:04;11.95;;;6.75;;
19998;SDS011;10160;50.926;4.374;2023-06-14T03:22:30;12.18;;;7.32;;
19998;SDS011;10160;50.926;4.374;2023-06-14T03:24:59;12.10;;;6.95;;
19998;SDS011;10160;50.926;4.374;2023-06-14T03:27:25;11.32;;;6.95;;
19998;SDS011;10160;50.926;4.374;2023-06-14T03:29:53;15.60;;;7.88;;
19998;SDS011;10160;50.926;4.374;2023-06-14T03:32:19;14.48;;;7.10;;
19998;SDS011;10160;50.926;4.374;2023-06-14T03:34:44;16.63;;;7.55;;
19998;SDS011;10160;50.926;4.374;2023-06-14T03:37:10;14.43;;;7.65;;
19998;SDS011;10160;50.926;4.374;2023-06-14T03:39:36;13.10;;;7.28;;
19998;SDS011;10160;50.926;4.374;2023-06-14T03:42:01;14.30;;;7.30;;
19998;SDS011;10160;50.926;4.374;2023-06-14T03:44:27;12.40;;;7.40;;
19998;SDS011;10160;50.926;4.374;2023-06-14T03:46:56;12.60;;;7.55;;
19998;SDS011;10160;50.926;4.374;2023-06-14T03:49:22;13.45;;;7.70;;
19998;SDS011;10160;50.926;4.374;2023-06-14T03:51:47;12.23;;;7.10;;
19998;SDS011;10160;50.926;4.374;2023-06-14T03:54:16;17.02;;;8.00;;
19998;SDS011;10160;50.926;4.374;2023-06-14T03:56:41;17.85;;;7.78;;
19998;SDS011;10160;50.926;4.374;2023-06-14T03:59:07;18.35;;;8.00;;
19998;SDS011;10160;50.926;4.374;2023-06-14T04:01:32;11.88;;;7.40;;
19998;SDS011;10160;50.926;4.374;2023-06-14T04:03:58;12.32;;;7.82;;
19998;SDS011;10160;50.926;4.374;2023-06-14T04:06:24;11.27;;;6.82;;
19998;SDS011;10160;50.926;4.374;2023-06-14T04:08:57;14.35;;;7.10;;
19998;SDS011;10160;50.926;4.374;2023-06-14T04:11:26;11.82;;;7.80;;
19998;SDS011;10160;50.926;4.374;2023-06-14T04:13:52;13.77;;;7.20;;
19998;SDS011;10160;50.926;4.374;2023-06-14T04:16:18;13.75;;;6.82;;
19998;SDS011;10160;50.926;4.374;2023-06-14T04:18:44;9.52;;;6.85;;
19998;SDS011;10160;50.926;4.374;2023-06-14T04:21:11;15.98;;;7.80;;
19998;SDS011;10160;50.926;4.374;2023-06-14T04:23:37;15.38;;;7.40;;
19998;SDS011;10160;50.926;4.374;2023-06-14T04:26:03;15.73;;;7.25;;
19998;SDS011;10160;50.926;4.374;2023-06-14T04:28:29;11.43;;;7.07;;
19998;SDS011;10160;50.926;4.374;2023-06-14T04:30:55;12.93;;;7.03;;
19998;SDS011;10160;50.926;4.374;2023-06-14T04:33:21;13.98;;;7.50;;
19998;SDS011;10160;50.926;4.374;2023-06-14T04:35:47;11.02;;;7.18;;
19998;SDS011;10160;50.926;4.374;2023-06-14T04:38:13;17.15;;;7.43;;
19998;SDS011;10160;50.926;4.374;2023-06-14T04:40:40;9.90;;;6.90;;
19998;SDS011;10160;50.926;4.374;2023-06-14T04:43:10;17.83;;;8.23;;
19998;SDS011;10160;50.926;4.374;2023-06-14T04:45:42;16.67;;;8.20;;
19998;SDS011;10160;50.926;4.374;2023-06-14T04:48:11;19.70;;;8.02;;
19998;SDS011;10160;50.926;4.374;2023-06-14T04:50:37;24.95;;;10.32;;
19998;SDS011;10160;50.926;4.374;2023-06-14T04:53:05;32.85;;;10.07;;
19998;SDS011;10160;50.926;4.374;2023-06-14T04:55:32;30.80;;;11.43;;
19998;SDS011;10160;50.926;4.374;2023-06-14T04:57:57;25.85;;;9.52;;
19998;SDS011;10160;50.926;4.374;2023-06-14T05:00:23;23.35;;;10.32;;
19998;SDS011;10160;50.926;4.374;2023-06-14T05:02:49;22.63;;;9.52;;
19998;SDS011;10160;50.926;4.374;2023-06-14T05:05:17;32.80;;;10.57;;
19998;SDS011;10160;50.926;4.374;2023-06-14T05:07:42;24.27;;;9.07;;
19998;SDS011;10160;50.926;4.374;2023-06-14T05:10:08;28.48;;;9.32;;
19998;SDS011;10160;50.926;4.374;2023-06-14T05:12:35;19.45;;;8.77;;
19998;SDS011;10160;50.926;4.374;2023-06-14T05:15:00;26.67;;;9.93;;
19998;SDS011;10160;50.926;4.374;2023-06-14T05:17:26;27.45;;;9.70;;
19998;SDS011;10160;50.926;4.374;2023-06-14T05:19:53;23.98;;;9.07;;
19998;SDS011;10160;50.926;4.374;2023-06-14T05:22:20;17.63;;;8.65;;
19998;SDS011;10160;50.926;4.374;2023-06-14T05:24:46;17.90;;;9.02;;
19998;SDS011;10160;50.926;4.374;2023-06-14T05:27:13;22.25;;;9.13;;
19998;SDS011;10160;50.926;4.374;2023-06-14T05:29:39;25.30;;;9.68;;
19998;SDS011;10160;50.926;4.374;2023-06-14T05:32:05;27.83;;;9.88;;
19998;SDS011;10160;50.926;4.374;2023-06-14T05:34:31;22.17;;;9.07;;
19998;SDS011;10160;50.926;4.374;2023-06-14T05:36:56;32.30;;;9.35;;
19998;SDS011;10160;50.926;4.374;2023-06-14T05:39:22;25.92;;;9.45;;
19998;SDS011;10160;50.926;4.374;2023-06-14T05:41:49;19.17;;;8.55;;
19998;SDS011;10160;50.926;4.374;2023-06-14T05:44:14;21.77;;;8.48;;
19998;SDS011;10160;50.926;4.374;2023-06-14T05:46:40;29.30;;;8.70;;
19998;SDS011;10160;50.926;4.374;2023-06-14T05:49:06;21.48;;;9.32;;
19998;SDS011;10160;50.926;4.374;2023-06-14T05:51:32;16.63;;;9.05;;
19998;SDS011;10160;50.926;4.374;2023-06-14T05:53:58;21.58;;;9.50;;
19998;SDS011;10160;50.926;4.374;2023-06-14T05:56:24;17.33;;;8.50;;
19998;SDS011;10160;50.926;4.374;2023-06-14T05:58:50;20.77;;;9.23;;
19998;SDS011;10160;50.926;4.374;2023-06-14T06:01:16;18.10;;;8.38;;
19998;SDS011;10160;50.926;4.374;2023-06-14T06:03:42;18.13;;;8.88;;
19998;SDS011;10160;50.926;4.374;2023-06-14T06:06:10;17.67;;;8.80;;
19998;SDS011;10160;50.926;4.374;2023-06-14T06:08:37;21.75;;;8.82;;
19998;SDS011;10160;50.926;4.374;2023-06-14T06:11:02;15.52;;;8.77;;
19998;SDS011;10160;50.926;4.374;2023-06-14T06:13:28;19.85;;;9.20;;
19998;SDS011;10160;50.926;4.374;2023-06-14T06:15:53;17.48;;;9.27;;
19998;SDS011;10160;50.926;4.374;2023-06-14T06:18:19;18.70;;;8.82;;
19998;SDS011;10160;50.926;4.374;2023-06-14T06:20:45;23.40;;;9.80;;
19998;SDS011;10160;50.926;4.374;2023-06-14T06:23:12;27.42;;;8.93;;
19998;SDS011;10160;50.926;4.374;2023-06-14T06:25:37;20.65;;;8.77;;
19998;SDS011;10160;50.926;4.374;2023-06-14T06:28:03;19.25;;;8.27;;
19998;SDS011;10160;50.926;4.374;2023-06-14T06:30:29;26.85;;;9.65;;
19998;SDS011;10160;50.926;4.374;2023-06-14T06:32:54;29.35;;;8.75;;
19998;SDS011;10160;50.926;4.374;2023-06-14T06:35:23;20.42;;;9.20;;
19998;SDS011;10160;50.926;4.374;2023-06-14T06:37:48;23.75;;;8.75;;
19998;SDS011;10160;50.926;4.374;2023-06-14T06:40:14;23.17;;;8.05;;
19998;SDS011;10160;50.926;4.374;2023-06-14T06:42:40;26.92;;;8.07;;
19998;SDS011;10160;50.926;4.374;2023-06-14T06:45:06;28.30;;;8.32;;
19998;SDS011;10160;50.926;4.374;2023-06-14T06:47:32;25.65;;;8.73;;
19998;SDS011;10160;50.926;4.374;2023-06-14T06:49:57;23.80;;;8.10;;
19998;SDS011;10160;50.926;4.374;2023-06-14T06:52:23;23.60;;;8.57;;
19998;SDS011;10160;50.926;4.374;2023-06-14T06:54:49;30.05;;;9.07;;
19998;SDS011;10160;50.926;4.374;2023-06-14T06:57:15;26.85;;;8.07;;
19998;SDS011;10160;50.926;4.374;2023-06-14T06:59:41;23.63;;;8.20;;
19998;SDS011;10160;50.926;4.374;2023-06-14T07:02:07;27.30;;;8.20;;
19998;SDS011;10160;50.926;4.374;2023-06-14T07:04:32;27.30;;;9.05;;
19998;SDS011;10160;50.926;4.374;2023-06-14T07:06:58;26.67;;;8.20;;
19998;SDS011;10160;50.926;4.374;2023-06-14T07:09:23;23.95;;;7.97;;
19998;SDS011;10160;50.926;4.374;2023-06-14T07:11:49;27.35;;;8.90;;
19998;SDS011;10160;50.926;4.374;2023-06-14T07:14:15;17.80;;;8.90;;
19998;SDS011;10160;50.926;4.374;2023-06-14T07:16:41;21.27;;;9.35;;
19998;SDS011;10160;50.926;4.374;2023-06-14T07:19:08;20.23;;;9.77;;
19998;SDS011;10160;50.926;4.374;2023-06-14T07:21:35;19.85;;;9.23;;
19998;SDS011;10160;50.926;4.374;2023-06-14T07:24:02;24.50;;;8.35;;
19998;SDS011;10160;50.926;4.374;2023-06-14T07:26:28;21.45;;;7.95;;
19998;SDS011;10160;50.926;4.374;2023-06-14T07:28:54;16.33;;;7.32;;
19998;SDS011;10160;50.926;4.374;2023-06-14T07:31:20;13.80;;;7.53;;
19998;SDS011;10160;50.926;4.374;2023-06-14T07:33:46;16.67;;;8.13;;
19998;SDS011;10160;50.926;4.374;2023-06-14T07:36:11;20.25;;;7.65;;
19998;SDS011;10160;50.926;4.374;2023-06-14T07:38:37;16.02;;;7.40;;
19998;SDS011;10160;50.926;4.374;2023-06-14T07:41:05;14.00;;;7.32;;
19998;SDS011;10160;50.926;4.374;2023-06-14T07:43:31;19.42;;;7.20;;
19998;SDS011;10160;50.926;4.374;2023-06-14T07:45:56;23.58;;;6.72;;
19998;SDS011;10160;50.926;4.374;2023-06-14T07:48:22;25.25;;;9.00;;
19998;SDS011;10160;50.926;4.374;2023-06-14T07:50:48;20.63;;;7.35;;
19998;SDS011;10160;50.926;4.374;2023-06-14T07:53:14;29.15;;;7.28;;
19998;SDS011;10160;50.926;4.374;2023-06-14T07:55:39;24.20;;;7.55;;
19998;SDS011;10160;50.926;4.374;2023-06-14T07:58:07;22.85;;;8.15;;
19998;SDS011;10160;50.926;4.374;2023-06-14T08:00:33;24.50;;;7.03;;
19998;SDS011;10160;50.926;4.374;2023-06-14T08:02:58;22.00;;;7.43;;
19998;SDS011;10160;50.926;4.374;2023-06-14T08:05:24;22.08;;;7.38;;
19998;SDS011;10160;50.926;4.374;2023-06-14T08:07:54;32.22;;;7.47;;
19998;SDS011;10160;50.926;4.374;2023-06-14T08:10:20;18.90;;;6.57;;
19998;SDS011;10160;50.926;4.374;2023-06-14T08:12:46;20.40;;;7.85;;
19998;SDS011;10160;50.926;4.374;2023-06-14T08:15:13;18.08;;;6.80;;
19998;SDS011;10160;50.926;4.374;2023-06-14T08:17:39;16.25;;;6.78;;
19998;SDS011;10160;50.926;4.374;2023-06-14T08:20:05;14.02;;;6.40;;
19998;SDS011;10160;50.926;4.374;2023-06-14T08:22:31;19.80;;;6.53;;
19998;SDS011;10160;50.926;4.374;2023-06-14T08:25:00;13.15;;;6.13;;
19998;SDS011;10160;50.926;4.374;2023-06-14T08:27:26;14.70;;;6.10;;
19998;SDS011;10160;50.926;4.374;2023-06-14T08:29:52;13.15;;;5.60;;
19998;SDS011;10160;50.926;4.374;2023-06-14T08:32:18;12.05;;;5.80;;
19998;SDS011;10160;50.926;4.374;2023-06-14T08:34:44;12.23;;;5.90;;
19998;SDS011;10160;50.926;4.374;2023-06-14T08:37:10;14.02;;;5.95;;
19998;SDS011;10160;50.926;4.374;2023-06-14T08:39:35;12.68;;;5.97;;
19998;SDS011;10160;50.926;4.374;2023-06-14T08:42:02;12.02;;;5.80;;
19998;SDS011;10160;50.926;4.374;2023-06-14T08:44:29;12.75;;;5.65;;
19998;SDS011;10160;50.926;4.374;2023-06-14T08:46:55;13.25;;;5.95;;
19998;SDS011;10160;50.926;4.374;2023-06-14T08:49:25;14.77;;;5.70;;
19998;SDS011;10160;50.926;4.374;2023-06-14T08:51:56;16.90;;;6.25;;
19998;SDS011;10160;50.926;4.374;2023-06-14T08:54:25;16.02;;;6.30;;
19998;SDS011;10160;50.926;4.374;2023-06-14T08:56:54;13.45;;;6.63;;
19998;SDS011;10160;50.926;4.374;2023-06-14T08:59:27;15.63;;;6.40;;
19998;SDS011;10160;50.926;4.374;2023-06-14T09:01:53;17.27;;;6.50;;
19998;SDS011;10160;50.926;4.374;2023-06-14T09:04:22;13.70;;;5.82;;
19998;SDS011;10160;50.926;4.374;2023-06-14T09:06:49;12.57;;;6.63;;
19998;SDS011;10160;50.926;4.374;2023-06-14T09:09:20;15.40;;;5.80;;
19998;SDS011;10160;50.926;4.374;2023-06-14T09:11:47;19.58;;;7.35;;
19998;SDS011;10160;50.926;4.374;2023-06-14T09:14:15;12.32;;;6.68;;
19998;SDS011;10160;50.926;4.374;2023-06-14T09:16:40;16.45;;;6.43;;
19998;SDS011;10160;50.926;4.374;2023-06-14T09:19:06;11.95;;;6.60;;
19998;SDS011;10160;50.926;4.374;2023-06-14T09:21:35;17.27;;;6.05;;
19998;SDS011;10160;50.926;4.374;2023-06-14T09:24:02;18.63;;;6.78;;
19998;SDS011;10160;50.926;4.374;2023-06-14T09:26:29;12.45;;;6.45;;
19998;SDS011;10160;50.926;4.374;2023-06-14T09:28:55;16.63;;;5.93;;
19998;SDS011;10160;50.926;4.374;2023-06-14T09:31:21;14.63;;;5.75;;
19998;SDS011;10160;50.926;4.374;2023-06-14T09:33:49;15.00;;;5.07;;
19998;SDS011;10160;50.926;4.374;2023-06-14T09:36:16;18.08;;;6.35;;
19998;SDS011;10160;50.926;4.374;2023-06-14T09:38:51;24.48;;;6.53;;
19998;SDS011;10160;50.926;4.374;2023-06-14T09:41:18;13.18;;;6.32;;
19998;SDS011;10160;50.926;4.374;2023-06-14T09:43:44;16.40;;;6.32;;
19998;SDS011;10160;50.926;4.374;2023-06-14T09:46:12;16.52;;;6.60;;
19998;SDS011;10160;50.926;4.374;2023-06-14T09:48:38;20.17;;;6.22;;
19998;SDS011;10160;50.926;4.374;2023-06-14T09:51:07;18.70;;;6.72;;
19998;SDS011;10160;50.926;4.374;2023-06-14T09:53:39;17.55;;;6.22;;
19998;SDS011;10160;50.926;4.374;2023-06-14T09:56:07;10.43;;;5.43;;
19998;SDS011;10160;50.926;4.374;2023-06-14T09:58:34;11.02;;;5.85;;
19998;SDS011;10160;50.926;4.374;2023-06-14T10:01:03;13.98;;;6.20;;
19998;SDS011;10160;50.926;4.374;2023-06-14T10:03:33;15.15;;;6.18;;
19998;SDS011;10160;50.926;4.374;2023-06-14T10:06:02;16.48;;;5.90;;
19998;SDS011;10160;50.926;4.374;2023-06-14T10:08:32;13.10;;;5.80;;
19998;SDS011;10160;50.926;4.374;2023-06-14T10:11:00;18.05;;;5.80;;
19998;SDS011;10160;50.926;4.374;2023-06-14T10:13:26;16.15;;;5.43;;
19998;SDS011;10160;50.926;4.374;2023-06-14T10:18:52;23.67;;;5.30;;
19998;SDS011;10160;50.926;4.374;2023-06-14T10:24:15;12.88;;;4.82;;
19998;SDS011;10160;50.926;4.374;2023-06-14T10:27:17;9.40;;;4.50;;
19998;SDS011;10160;50.926;4.374;2023-06-14T10:30:01;20.55;;;5.45;;
19998;SDS011;10160;50.926;4.374;2023-06-14T10:32:28;11.30;;;4.75;;
19998;SDS011;10160;50.926;4.374;2023-06-14T10:34:55;10.82;;;4.50;;
19998;SDS011;10160;50.926;4.374;2023-06-14T10:37:22;12.75;;;4.70;;
19998;SDS011;10160;50.926;4.374;2023-06-14T10:39:49;8.60;;;3.83;;
19998;SDS011;10160;50.926;4.374;2023-06-14T10:42:15;13.27;;;4.60;;
19998;SDS011;10160;50.926;4.374;2023-06-14T10:47:09;13.20;;;4.28;;
19998;SDS011;10160;50.926;4.374;2023-06-14T10:49:43;8.98;;;4.13;;
19998;SDS011;10160;50.926;4.374;2023-06-14T10:52:11;14.00;;;4.70;;
19998;SDS011;10160;50.926;4.374;2023-06-14T10:55:22;11.80;;;4.80;;
19998;SDS011;10160;50.926;4.374;2023-06-14T10:58:01;11.48;;;4.10;;
19998;SDS011;10160;50.926;4.374;2023-06-14T11:00:28;14.23;;;4.80;;
19998;SDS011;10160;50.926;4.374;2023-06-14T11:05:30;15.77;;;4.68;;
19998;SDS011;10160;50.926;4.374;2023-06-14T11:10:44;10.68;;;4.20;;
19998;SDS011;10160;50.926;4.374;2023-06-14T11:13:10;11.77;;;4.07;;
19998;SDS011;10160;50.926;4.374;2023-06-14T11:15:36;8.43;;;4.20;;
19998;SDS011;10160;50.926;4.374;2023-06-14T11:18:04;10.07;;;4.15;;
19998;SDS011;10160;50.926;4.374;2023-06-14T11:20:32;12.93;;;3.90;;
19998;SDS011;10160;50.926;4.374;2023-06-14T11:22:59;7.35;;;3.78;;
19998;SDS011;10160;50.926;4.374;2023-06-14T11:25:25;9.55;;;3.95;;
19998;SDS011;10160;50.926;4.374;2023-06-14T11:27:53;11.85;;;3.97;;
19998;SDS011;10160;50.926;4.374;2023-06-14T11:30:19;14.70;;;3.80;;
19998;SDS011;10160;50.926;4.374;2023-06-14T11:32:48;9.55;;;4.22;;
19998;SDS011;10160;50.926;4.374;2023-06-14T11:35:16;8.18;;;4.32;;
19998;SDS011;10160;50.926;4.374;2023-06-14T11:37:43;13.00;;;4.28;;
19998;SDS011;10160;50.926;4.374;2023-06-14T11:40:09;10.13;;;4.38;;
19998;SDS011;10160;50.926;4.374;2023-06-14T11:42:37;11.38;;;4.18;;
19998;SDS011;10160;50.926;4.374;2023-06-14T11:45:10;13.57;;;3.72;;
19998;SDS011;10160;50.926;4.374;2023-06-14T11:47:37;8.75;;;4.32;;
19998;SDS011;10160;50.926;4.374;2023-06-14T11:50:05;8.35;;;4.63;;
19998;SDS011;10160;50.926;4.374;2023-06-14T11:52:33;9.55;;;4.30;;
19998;SDS011;10160;50.926;4.374;2023-06-14T11:54:59;10.02;;;3.97;;
19998;SDS011;10160;50.926;4.374;2023-06-14T11:57:29;7.43;;;3.63;;
19998;SDS011;10160;50.926;4.374;2023-06-14T11:59:55;17.27;;;4.35;;
19998;SDS011;10160;50.926;4.374;2023-06-14T12:02:21;13.52;;;4.20;;
19998;SDS011;10160;50.926;4.374;2023-06-14T12:04:47;11.95;;;4.25;;
19998;SDS011;10160;50.926;4.374;2023-06-14T12:07:16;17.73;;;4.18;;
19998;SDS011;10160;50.926;4.374;2023-06-14T12:12:22;7.97;;;3.35;;
19998;SDS011;10160;50.926;4.374;2023-06-14T12:14:51;6.07;;;3.28;;
19998;SDS011;10160;50.926;4.374;2023-06-14T12:17:21;7.20;;;3.67;;
19998;SDS011;10160;50.926;4.374;2023-06-14T12:19:48;10.30;;;3.88;;
19998;SDS011;10160;50.926;4.374;2023-06-14T12:22:15;13.90;;;3.83;;
19998;SDS011;10160;50.926;4.374;2023-06-14T12:24:44;9.25;;;3.90;;
19998;SDS011;10160;50.926;4.374;2023-06-14T12:27:10;10.05;;;3.55;;
19998;SDS011;10160;50.926;4.374;2023-06-14T12:29:41;9.65;;;3.67;;
19998;SDS011;10160;50.926;4.374;2023-06-14T12:32:10;13.15;;;3.53;;
19998;SDS011;10160;50.926;4.374;2023-06-14T12:34:36;9.70;;;3.55;;
19998;SDS011;10160;50.926;4.374;2023-06-14T12:37:02;9.55;;;3.53;;
19998;SDS011;10160;50.926;4.374;2023-06-14T12:39:29;9.27;;;3.63;;
19998;SDS011;10160;50.926;4.374;2023-06-14T12:41:56;10.38;;;3.38;;
19998;SDS011;10160;50.926;4.374;2023-06-14T12:44:22;9.02;;;3.75;;
19998;SDS011;10160;50.926;4.374;2023-06-14T12:46:48;7.05;;;3.15;;
19998;SDS011;10160;50.926;4.374;2023-06-14T12:49:16;8.18;;;3.40;;
19998;SDS011;10160;50.926;4.374;2023-06-14T12:51:42;8.32;;;3.50;;
19998;SDS011;10160;50.926;4.374;2023-06-14T12:54:08;8.80;;;3.42;;
19998;SDS011;10160;50.926;4.374;2023-06-14T12:56:33;18.67;;;3.47;;
19998;SDS011;10160;50.926;4.374;2023-06-14T12:58:59;8.10;;;3.60;;
19998;SDS011;10160;50.926;4.374;2023-06-14T13:01:25;9.40;;;3.45;;
19998;SDS011;10160;50.926;4.374;2023-06-14T13:03:51;7.80;;;3.20;;
19998;SDS011;10160;50.926;4.374;2023-06-14T13:06:20;12.98;;;3.40;;
19998;SDS011;10160;50.926;4.374;2023-06-14T13:08:47;10.15;;;3.33;;
19998;SDS011;10160;50.926;4.374;2023-06-14T13:11:13;8.32;;;3.40;;
19998;SDS011;10160;50.926;4.374;2023-06-14T13:13:40;10.07;;;3.47;;
19998;SDS011;10160;50.926;4.374;2023-06-14T13:16:05;6.28;;;2.50;;
19998;SDS011;10160;50.926;4.374;2023-06-14T13:18:31;9.18;;;3.25;;
19998;SDS011;10160;50.926;4.374;2023-06-14T13:20:57;9.90;;;3.05;;
19998;SDS011;10160;50.926;4.374;2023-06-14T13:23:22;9.52;;;3.10;;
19998;SDS011;10160;50.926;4.374;2023-06-14T13:25:48;9.93;;;3.20;;
19998;SDS011;10160;50.926;4.374;2023-06-14T13:28:17;17.55;;;3.40;;
19998;SDS011;10160;50.926;4.374;2023-06-14T13:30:43;15.82;;;3.35;;
19998;SDS011;10160;50.926;4.374;2023-06-14T13:33:08;8.35;;;2.85;;
19998;SDS011;10160;50.926;4.374;2023-06-14T13:35:34;5.72;;;2.60;;
19998;SDS011;10160;50.926;4.374;2023-06-14T13:38:00;11.63;;;2.72;;
19998;SDS011;10160;50.926;4.374;2023-06-14T13:40:26;7.22;;;3.08;;
19998;SDS011;10160;50.926;4.374;2023-06-14T13:42:51;10.50;;;2.55;;
19998;SDS011;10160;50.926;4.374;2023-06-14T13:45:17;9.07;;;2.33;;
19998;SDS011;10160;50.926;4.374;2023-06-14T13:47:43;5.68;;;2.10;;
19998;SDS011;10160;50.926;4.374;2023-06-14T13:50:09;12.25;;;2.60;;
19998;SDS011;10160;50.926;4.374;2023-06-14T13:52:35;10.35;;;2.88;;
19998;SDS011;10160;50.926;4.374;2023-06-14T13:55:01;12.98;;;2.08;;
19998;SDS011;10160;50.926;4.374;2023-06-14T13:57:27;10.57;;;2.45;;
19998;SDS011;10160;50.926;4.374;2023-06-14T13:59:53;5.25;;;1.73;;
19998;SDS011;10160;50.926;4.374;2023-06-14T14:02:20;7.32;;;2.30;;
19998;SDS011;10160;50.926;4.374;2023-06-14T14:04:49;13.57;;;2.00;;
19998;SDS011;10160;50.926;4.374;2023-06-14T14:07:18;4.68;;;1.85;;
19998;SDS011;10160;50.926;4.374;2023-06-14T14:09:45;6.82;;;2.33;;
19998;SDS011;10160;50.926;4.374;2023-06-14T14:12:12;7.20;;;1.70;;
19998;SDS011;10160;50.926;4.374;2023-06-14T14:14:37;7.80;;;1.85;;
19998;SDS011;10160;50.926;4.374;2023-06-14T14:17:03;4.63;;;1.80;;
19998;SDS011;10160;50.926;4.374;2023-06-14T14:19:29;6.63;;;1.60;;
19998;SDS011;10160;50.926;4.374;2023-06-14T14:21:55;6.53;;;1.83;;
19998;SDS011;10160;50.926;4.374;2023-06-14T14:24:21;3.97;;;1.40;;
19998;SDS011;10160;50.926;4.374;2023-06-14T14:26:46;2.95;;;1.10;;
19998;SDS011;10160;50.926;4.374;2023-06-14T14:29:13;5.90;;;1.40;;
19998;SDS011;10160;50.926;4.374;2023-06-14T14:31:39;5.45;;;1.27;;
19998;SDS011;10160;50.926;4.374;2023-06-14T14:34:08;4.22;;;1.42;;
19998;SDS011;10160;50.926;4.374;2023-06-14T14:36:33;6.43;;;1.52;;
19998;SDS011;10160;50.926;4.374;2023-06-14T14:39:02;11.50;;;1.38;;
19998;SDS011;10160;50.926;4.374;2023-06-14T14:41:28;7.40;;;1.63;;
19998;SDS011;10160;50.926;4.374;2023-06-14T14:43:54;4.32;;;1.42;;
19998;SDS011;10160;50.926;4.374;2023-06-14T14:46:20;15.65;;;1.75;;
19998;SDS011;10160;50.926;4.374;2023-06-14T14:48:46;4.57;;;1.92;;
19998;SDS011;10160;50.926;4.374;2023-06-14T14:51:20;8.77;;;1.52;;
19998;SDS011;10160;50.926;4.374;2023-06-14T14:53:49;3.90;;;1.50;;
19998;SDS011;10160;50.926;4.374;2023-06-14T14:56:15;5.78;;;1.83;;
19998;SDS011;10160;50.926;4.374;2023-06-14T14:58:41;7.13;;;2.00;;